sensor_id;sensor_type;location;lat;lon;timestamp;temperature;humidity
12013;DHT22;6065;48.138;16.402;2022-11-20T00:01:28;2.50;99.90
12013;DHT22;6065;48.138;16.402;2022-11-20T00:03:55;2.50;99.90
12013;DHT22;6065;48.138;16.402;2022-11-20T00:06:23;2.60;99.90
12013;DHT22;6065;48.138;16.402;2022-11-20T00:08:50;2.50;99.90
12013;DHT22;6065;48.138;16.402;2022-11-20T00:11:17;2.50;99.90
12013;DHT22;6065;48.138;16.402;2022-11-20T00:13:46;2.50;99.90
12013;DHT22;6065;48.138;16.402;2022-11-20T00:16:14;2.40;99.90
12013;DHT22;6065;48.138;16.402;2022-11-20T00:18:41;2.50;99.90
12013;DHT22;6065;48.138;16.402;2022-11-20T00:21:10;2.50;99.90
12013;DHT22;6065;48.138;16.402;2022-11-20T00:23:37;2.50;99.90
12013;DHT22;6065;48.138;16.402;2022-11-20T00:26:04;2.50;99.90
12013;DHT22;6065;48.138;16.402;2022-11-20T00:28:31;2.40;99.90
12013;DHT22;6065;48.138;16.402;2022-11-20T00:31:03;2.50;99.90
12013;DHT22;6065;48.138;16.402;2022-11-20T00:33:30;2.40;99.90
12013;DHT22;6065;48.138;16.402;2022-11-20T00:36:00;2.40;99.90
12013;DHT22;6065;48.138;16.402;2022-11-20T00:38:27;2.50;99.90
12013;DHT22;6065;48.138;16.402;2022-11-20T00:40:55;2.40;99.90
12013;DHT22;6065;48.138;16.402;2022-11-20T00:43:22;2.40;99.90
12013;DHT22;6065;48.138;16.402;2022-11-20T00:45:49;2.40;99.90
12013;DHT22;6065;48.138;16.402;2022-11-20T00:48:17;2.40;99.90
12013;DHT22;6065;48.138;16.402;2022-11-20T00:50:44;2.40;99.90
12013;DHT22;6065;48.138;16.402;2022-11-20T00:53:11;2.40;99.90
12013;DHT22;6065;48.138;16.402;2022-11-20T00:55:38;2.40;99.90
12013;DHT22;6065;48.138;16.402;2022-11-20T00:58:04;2.40;99.90
12013;DHT22;6065;48.138;16.402;2022-11-20T01:00:31;2.40;99.90
12013;DHT22;6065;48.138;16.402;2022-11-20T01:02:58;2.40;99.90
12013;DHT22;6065;48.138;16.402;2022-11-20T01:05:26;2.40;99.90
12013;DHT22;6065;48.138;16.402;2022-11-20T01:07:52;2.30;99.90
12013;DHT22;6065;48.138;16.402;2022-11-20T01:10:19;2.40;99.90
12013;DHT22;6065;48.138;16.402;2022-11-20T01:12:46;2.40;99.90
12013;DHT22;6065;48.138;16.402;2022-11-20T01:15:33;2.40;99.90
12013;DHT22;6065;48.138;16.402;2022-11-20T01:18:00;2.40;99.90
12013;DHT22;6065;48.138;16.402;2022-11-20T01:20:28;2.40;99.90
12013;DHT22;6065;48.138;16.402;2022-11-20T01:22:54;2.40;99.90
12013;DHT22;6065;48.138;16.402;2022-11-20T01:25:21;2.30;99.90
12013;DHT22;6065;48.138;16.402;2022-11-20T01:27:48;2.30;99.90
12013;DHT22;6065;48.138;16.402;2022-11-20T01:30:15;2.30;99.90
12013;DHT22;6065;48.138;16.402;2022-11-20T01:32:42;2.30;99.90
12013;DHT22;6065;48.138;16.402;2022-11-20T01:35:08;2.30;99.90
12013;DHT22;6065;48.138;16.402;2022-11-20T01:37:36;2.30;99.90
12013;DHT22;6065;48.138;16.402;2022-11-20T01:40:04;2.30;99.90
12013;DHT22;6065;48.138;16.402;2022-11-20T01:42:30;2.30;99.90
12013;DHT22;6065;48.138;16.402;2022-11-20T01:48:00;2.40;99.90
12013;DHT22;6065;48.138;16.402;2022-11-20T01:50:27;2.30;99.90
12013;DHT22;6065;48.138;16.402;2022-11-20T01:52:56;2.30;99.90
12013;DHT22;6065;48.138;16.402;2022-11-20T01:55:25;2.30;99.90
12013;DHT22;6065;48.138;16.402;2022-11-20T01:57:52;2.30;99.90
12013;DHT22;6065;48.138;16.402;2022-11-20T02:00:19;2.30;99.90
12013;DHT22;6065;48.138;16.402;2022-11-20T02:02:47;2.40;99.90
12013;DHT22;6065;48.138;16.402;2022-11-20T02:05:16;2.30;99.90
12013;DHT22;6065;48.138;16.402;2022-11-20T02:07:44;2.20;99.90
12013;DHT22;6065;48.138;16.402;2022-11-20T02:10:13;2.20;99.90
12013;DHT22;6065;48.138;16.402;2022-11-20T02:12:40;2.20;99.90
12013;DHT22;6065;48.138;16.402;2022-11-20T02:15:24;2.20;99.90
12013;DHT22;6065;48.138;16.402;2022-11-20T02:17:51;2.20;99.90
12013;DHT22;6065;48.138;16.402;2022-11-20T02:20:18;2.20;99.90
12013;DHT22;6065;48.138;16.402;2022-11-20T02:22:46;2.20;99.90
12013;DHT22;6065;48.138;16.402;2022-11-20T02:25:16;2.20;99.90
12013;DHT22;6065;48.138;16.402;2022-11-20T02:27:43;2.20;99.90
12013;DHT22;6065;48.138;16.402;2022-11-20T02:30:10;2.20;99.90
12013;DHT22;6065;48.138;16.402;2022-11-20T02:32:37;2.20;99.90
12013;DHT22;6065;48.138;16.402;2022-11-20T02:35:08;2.20;99.90
12013;DHT22;6065;48.138;16.402;2022-11-20T02:37:35;2.20;99.90
12013;DHT22;6065;48.138;16.402;2022-11-20T02:40:03;2.20;99.90
12013;DHT22;6065;48.138;16.402;2022-11-20T02:42:31;2.20;99.90
12013;DHT22;6065;48.138;16.402;2022-11-20T02:44:58;2.20;99.90
12013;DHT22;6065;48.138;16.402;2022-11-20T02:47:25;2.20;99.90
12013;DHT22;6065;48.138;16.402;2022-11-20T02:49:52;2.20;99.90
12013;DHT22;6065;48.138;16.402;2022-11-20T02:52:18;2.20;99.90
12013;DHT22;6065;48.138;16.402;2022-11-20T02:54:45;2.20;99.90
12013;DHT22;6065;48.138;16.402;2022-11-20T02:57:12;2.20;99.90
12013;DHT22;6065;48.138;16.402;2022-11-20T02:59:40;2.20;99.90
12013;DHT22;6065;48.138;16.402;2022-11-20T03:02:07;2.20;99.90
12013;DHT22;6065;48.138;16.402;2022-11-20T03:04:34;2.20;99.90
12013;DHT22;6065;48.138;16.402;2022-11-20T03:07:00;2.20;99.90
12013;DHT22;6065;48.138;16.402;2022-11-20T03:09:27;2.20;99.90
12013;DHT22;6065;48.138;16.402;2022-11-20T03:11:54;2.20;99.90
12013;DHT22;6065;48.138;16.402;2022-11-20T03:14:20;2.20;99.90
12013;DHT22;6065;48.138;16.402;2022-11-20T03:16:48;2.20;99.90
12013;DHT22;6065;48.138;16.402;2022-11-20T03:19:15;2.20;99.90
12013;DHT22;6065;48.138;16.402;2022-11-20T03:21:42;2.30;99.90
12013;DHT22;6065;48.138;16.402;2022-11-20T03:24:08;2.20;99.90
12013;DHT22;6065;48.138;16.402;2022-11-20T03:26:35;2.10;99.90
12013;DHT22;6065;48.138;16.402;2022-11-20T03:29:02;2.20;99.90
12013;DHT22;6065;48.138;16.402;2022-11-20T03:31:31;2.10;99.90
12013;DHT22;6065;48.138;16.402;2022-11-20T03:34:00;2.10;99.90
12013;DHT22;6065;48.138;16.402;2022-11-20T03:36:27;2.10;99.90
12013;DHT22;6065;48.138;16.402;2022-11-20T03:38:54;2.10;99.90
12013;DHT22;6065;48.138;16.402;2022-11-20T03:41:22;2.10;99.90
12013;DHT22;6065;48.138;16.402;2022-11-20T03:43:49;2.10;99.90
12013;DHT22;6065;48.138;16.402;2022-11-20T03:46:16;2.10;99.90
12013;DHT22;6065;48.138;16.402;2022-11-20T03:48:43;2.10;99.90
12013;DHT22;6065;48.138;16.402;2022-11-20T03:51:12;2.10;99.90
12013;DHT22;6065;48.138;16.402;2022-11-20T03:53:39;2.10;99.90
12013;DHT22;6065;48.138;16.402;2022-11-20T03:56:06;2.10;99.90
12013;DHT22;6065;48.138;16.402;2022-11-20T03:58:33;2.20;99.90
12013;DHT22;6065;48.138;16.402;2022-11-20T04:01:04;2.20;99.90
12013;DHT22;6065;48.138;16.402;2022-11-20T04:03:30;2.20;99.90
12013;DHT22;6065;48.138;16.402;2022-11-20T04:06:00;2.20;99.90
12013;DHT22;6065;48.138;16.402;2022-11-20T04:08:29;2.20;99.90
12013;DHT22;6065;48.138;16.402;2022-11-20T04:10:55;2.30;99.90
12013;DHT22;6065;48.138;16.402;2022-11-20T04:13:22;2.30;99.90
12013;DHT22;6065;48.138;16.402;2022-11-20T04:15:49;2.30;99.90
12013;DHT22;6065;48.138;16.402;2022-11-20T04:18:15;2.30;99.90
12013;DHT22;6065;48.138;16.402;2022-11-20T04:20:42;2.30;99.90
12013;DHT22;6065;48.138;16.402;2022-11-20T04:23:09;2.30;99.90
12013;DHT22;6065;48.138;16.402;2022-11-20T04:25:37;2.30;99.90
12013;DHT22;6065;48.138;16.402;2022-11-20T04:28:04;2.30;99.90
12013;DHT22;6065;48.138;16.402;2022-11-20T04:30:30;2.30;99.90
12013;DHT22;6065;48.138;16.402;2022-11-20T04:32:57;2.30;99.90
12013;DHT22;6065;48.138;16.402;2022-11-20T04:35:24;2.30;99.90
12013;DHT22;6065;48.138;16.402;2022-11-20T04:37:50;2.30;99.90
12013;DHT22;6065;48.138;16.402;2022-11-20T04:40:17;2.30;99.90
12013;DHT22;6065;48.138;16.402;2022-11-20T04:42:47;2.30;99.90
12013;DHT22;6065;48.138;16.402;2022-11-20T04:45:15;2.30;99.90
12013;DHT22;6065;48.138;16.402;2022-11-20T04:47:42;2.30;99.90
12013;DHT22;6065;48.138;16.402;2022-11-20T04:50:09;2.30;99.90
12013;DHT22;6065;48.138;16.402;2022-11-20T04:52:35;2.30;99.90
12013;DHT22;6065;48.138;16.402;2022-11-20T04:55:02;2.30;99.90
12013;DHT22;6065;48.138;16.402;2022-11-20T04:57:29;2.30;99.90
12013;DHT22;6065;48.138;16.402;2022-11-20T04:59:57;2.30;99.90
12013;DHT22;6065;48.138;16.402;2022-11-20T05:02:24;2.30;99.90
12013;DHT22;6065;48.138;16.402;2022-11-20T05:04:50;2.30;99.90
12013;DHT22;6065;48.138;16.402;2022-11-20T05:07:17;2.30;99.90
12013;DHT22;6065;48.138;16.402;2022-11-20T05:09:44;2.20;99.90
12013;DHT22;6065;48.138;16.402;2022-11-20T05:12:10;2.30;99.90
12013;DHT22;6065;48.138;16.402;2022-11-20T05:14:37;2.30;99.90
12013;DHT22;6065;48.138;16.402;2022-11-20T05:17:05;2.30;99.90
12013;DHT22;6065;48.138;16.402;2022-11-20T05:19:32;2.20;99.90
12013;DHT22;6065;48.138;16.402;2022-11-20T05:21:58;2.20;99.90
12013;DHT22;6065;48.138;16.402;2022-11-20T05:24:25;2.20;99.90
12013;DHT22;6065;48.138;16.402;2022-11-20T05:26:52;2.20;99.90
12013;DHT22;6065;48.138;16.402;2022-11-20T05:29:18;2.20;99.90
12013;DHT22;6065;48.138;16.402;2022-11-20T05:31:45;2.20;99.90
12013;DHT22;6065;48.138;16.402;2022-11-20T05:34:13;2.10;99.90
12013;DHT22;6065;48.138;16.402;2022-11-20T05:36:40;2.20;99.90
12013;DHT22;6065;48.138;16.402;2022-11-20T05:39:06;2.20;99.90
12013;DHT22;6065;48.138;16.402;2022-11-20T05:41:33;2.20;99.90
12013;DHT22;6065;48.138;16.402;2022-11-20T05:44:00;2.30;99.90
12013;DHT22;6065;48.138;16.402;2022-11-20T05:46:27;2.20;99.90
12013;DHT22;6065;48.138;16.402;2022-11-20T05:48:53;2.20;99.90
12013;DHT22;6065;48.138;16.402;2022-11-20T05:51:21;2.20;99.90
12013;DHT22;6065;48.138;16.402;2022-11-20T05:53:48;2.20;99.90
12013;DHT22;6065;48.138;16.402;2022-11-20T05:56:16;2.30;99.90
12013;DHT22;6065;48.138;16.402;2022-11-20T05:58:42;2.30;99.90
12013;DHT22;6065;48.138;16.402;2022-11-20T06:01:11;2.20;99.90
12013;DHT22;6065;48.138;16.402;2022-11-20T06:03:38;2.20;99.90
12013;DHT22;6065;48.138;16.402;2022-11-20T06:06:05;2.20;99.90
12013;DHT22;6065;48.138;16.402;2022-11-20T06:08:33;2.20;99.90
12013;DHT22;6065;48.138;16.402;2022-11-20T06:11:02;2.20;99.90
12013;DHT22;6065;48.138;16.402;2022-11-20T06:13:29;2.20;99.90
12013;DHT22;6065;48.138;16.402;2022-11-20T06:15:56;2.20;99.90
12013;DHT22;6065;48.138;16.402;2022-11-20T06:18:22;2.20;99.90
12013;DHT22;6065;48.138;16.402;2022-11-20T06:20:49;2.30;99.90
12013;DHT22;6065;48.138;16.402;2022-11-20T06:23:16;2.30;99.90
12013;DHT22;6065;48.138;16.402;2022-11-20T06:25:44;2.30;99.90
12013;DHT22;6065;48.138;16.402;2022-11-20T06:28:10;2.30;99.90
12013;DHT22;6065;48.138;16.402;2022-11-20T06:30:37;2.30;99.90
12013;DHT22;6065;48.138;16.402;2022-11-20T06:33:10;2.30;99.90
12013;DHT22;6065;48.138;16.402;2022-11-20T06:35:37;2.40;99.90
12013;DHT22;6065;48.138;16.402;2022-11-20T06:38:03;2.40;99.90
12013;DHT22;6065;48.138;16.402;2022-11-20T06:40:30;2.40;99.90
12013;DHT22;6065;48.138;16.402;2022-11-20T06:42:58;2.40;99.90
12013;DHT22;6065;48.138;16.402;2022-11-20T06:45:25;2.30;99.90
12013;DHT22;6065;48.138;16.402;2022-11-20T06:47:52;2.30;99.90
12013;DHT22;6065;48.138;16.402;2022-11-20T06:50:18;2.30;99.90
12013;DHT22;6065;48.138;16.402;2022-11-20T06:52:46;2.30;99.90
12013;DHT22;6065;48.138;16.402;2022-11-20T06:55:12;2.30;99.90
12013;DHT22;6065;48.138;16.402;2022-11-20T06:57:40;2.30;99.90
12013;DHT22;6065;48.138;16.402;2022-11-20T07:00:08;2.30;99.90
12013;DHT22;6065;48.138;16.402;2022-11-20T07:02:35;2.30;99.90
12013;DHT22;6065;48.138;16.402;2022-11-20T07:05:05;2.30;99.90
12013;DHT22;6065;48.138;16.402;2022-11-20T07:07:32;2.20;99.90
12013;DHT22;6065;48.138;16.402;2022-11-20T07:09:59;2.30;99.90
12013;DHT22;6065;48.138;16.402;2022-11-20T07:12:25;2.30;99.90
12013;DHT22;6065;48.138;16.402;2022-11-20T07:14:52;2.30;99.90
12013;DHT22;6065;48.138;16.402;2022-11-20T07:17:21;2.20;99.90
12013;DHT22;6065;48.138;16.402;2022-11-20T07:19:48;2.40;99.90
12013;DHT22;6065;48.138;16.402;2022-11-20T07:22:14;2.20;99.90
12013;DHT22;6065;48.138;16.402;2022-11-20T07:24:41;2.20;99.90
12013;DHT22;6065;48.138;16.402;2022-11-20T07:27:08;2.20;99.90
12013;DHT22;6065;48.138;16.402;2022-11-20T07:29:34;2.20;99.90
12013;DHT22;6065;48.138;16.402;2022-11-20T07:32:01;2.20;99.90
12013;DHT22;6065;48.138;16.402;2022-11-20T07:34:29;2.20;99.90
12013;DHT22;6065;48.138;16.402;2022-11-20T07:36:56;2.20;99.90
12013;DHT22;6065;48.138;16.402;2022-11-20T07:39:22;2.20;99.90
12013;DHT22;6065;48.138;16.402;2022-11-20T07:41:49;2.20;99.90
12013;DHT22;6065;48.138;16.402;2022-11-20T07:44:16;2.20;99.90
12013;DHT22;6065;48.138;16.402;2022-11-20T07:46:42;2.20;99.90
12013;DHT22;6065;48.138;16.402;2022-11-20T07:49:10;2.10;99.90
12013;DHT22;6065;48.138;16.402;2022-11-20T07:51:39;2.10;99.90
12013;DHT22;6065;48.138;16.402;2022-11-20T07:54:06;2.10;99.90
12013;DHT22;6065;48.138;16.402;2022-11-20T07:56:32;2.10;99.90
12013;DHT22;6065;48.138;16.402;2022-11-20T07:58:59;2.20;99.90
12013;DHT22;6065;48.138;16.402;2022-11-20T08:01:26;2.10;99.90
12013;DHT22;6065;48.138;16.402;2022-11-20T08:03:53;2.10;99.90
12013;DHT22;6065;48.138;16.402;2022-11-20T08:06:19;2.20;99.90
12013;DHT22;6065;48.138;16.402;2022-11-20T08:08:47;2.10;99.90
12013;DHT22;6065;48.138;16.402;2022-11-20T08:11:14;2.20;99.90
12013;DHT22;6065;48.138;16.402;2022-11-20T08:13:57;2.20;99.90
12013;DHT22;6065;48.138;16.402;2022-11-20T08:16:39;2.20;99.90
12013;DHT22;6065;48.138;16.402;2022-11-20T08:19:06;2.20;99.90
12013;DHT22;6065;48.138;16.402;2022-11-20T08:21:33;2.20;99.90
12013;DHT22;6065;48.138;16.402;2022-11-20T08:24:01;2.20;99.90
12013;DHT22;6065;48.138;16.402;2022-11-20T08:26:28;2.30;99.90
12013;DHT22;6065;48.138;16.402;2022-11-20T08:28:54;2.20;99.90
12013;DHT22;6065;48.138;16.402;2022-11-20T08:31:22;2.20;99.90
12013;DHT22;6065;48.138;16.402;2022-11-20T08:33:48;2.20;99.90
12013;DHT22;6065;48.138;16.402;2022-11-20T08:36:15;2.20;99.90
12013;DHT22;6065;48.138;16.402;2022-11-20T08:38:46;2.20;99.90
12013;DHT22;6065;48.138;16.402;2022-11-20T08:41:14;2.20;99.90
12013;DHT22;6065;48.138;16.402;2022-11-20T08:43:51;2.20;99.90
12013;DHT22;6065;48.138;16.402;2022-11-20T08:46:18;2.20;99.90
12013;DHT22;6065;48.138;16.402;2022-11-20T08:48:45;2.20;99.90
12013;DHT22;6065;48.138;16.402;2022-11-20T08:51:12;2.10;99.90
12013;DHT22;6065;48.138;16.402;2022-11-20T08:53:39;2.20;99.90
12013;DHT22;6065;48.138;16.402;2022-11-20T08:56:06;2.20;99.90
12013;DHT22;6065;48.138;16.402;2022-11-20T08:58:36;2.20;99.90
12013;DHT22;6065;48.138;16.402;2022-11-20T09:01:03;2.20;99.90
12013;DHT22;6065;48.138;16.402;2022-11-20T09:03:30;2.20;99.90
12013;DHT22;6065;48.138;16.402;2022-11-20T09:05:57;2.20;99.90
12013;DHT22;6065;48.138;16.402;2022-11-20T09:08:25;2.20;99.90
12013;DHT22;6065;48.138;16.402;2022-11-20T09:10:52;2.30;99.90
12013;DHT22;6065;48.138;16.402;2022-11-20T09:13:25;2.30;99.90
12013;DHT22;6065;48.138;16.402;2022-11-20T09:15:57;2.30;99.90
12013;DHT22;6065;48.138;16.402;2022-11-20T09:18:24;2.30;99.90
12013;DHT22;6065;48.138;16.402;2022-11-20T09:20:50;2.30;99.90
12013;DHT22;6065;48.138;16.402;2022-11-20T09:23:17;2.30;99.90
12013;DHT22;6065;48.138;16.402;2022-11-20T09:25:44;2.40;99.90
12013;DHT22;6065;48.138;16.402;2022-11-20T09:28:13;2.40;99.90
12013;DHT22;6065;48.138;16.402;2022-11-20T09:30:41;2.40;99.90
12013;DHT22;6065;48.138;16.402;2022-11-20T09:33:09;2.50;99.90
12013;DHT22;6065;48.138;16.402;2022-11-20T09:35:36;2.30;99.90
12013;DHT22;6065;48.138;16.402;2022-11-20T09:38:06;2.30;99.90
12013;DHT22;6065;48.138;16.402;2022-11-20T09:40:34;2.40;99.90
12013;DHT22;6065;48.138;16.402;2022-11-20T09:43:01;2.40;99.90
12013;DHT22;6065;48.138;16.402;2022-11-20T09:45:37;2.40;99.90
12013;DHT22;6065;48.138;16.402;2022-11-20T09:50:55;2.40;99.90
12013;DHT22;6065;48.138;16.402;2022-11-20T09:53:27;2.50;99.90
12013;DHT22;6065;48.138;16.402;2022-11-20T09:55:57;2.40;99.90
12013;DHT22;6065;48.138;16.402;2022-11-20T09:58:28;2.40;99.90
12013;DHT22;6065;48.138;16.402;2022-11-20T10:00:59;2.40;99.90
12013;DHT22;6065;48.138;16.402;2022-11-20T10:03:30;2.50;99.90
12013;DHT22;6065;48.138;16.402;2022-11-20T10:06:02;2.50;99.90
12013;DHT22;6065;48.138;16.402;2022-11-20T10:08:31;2.50;99.90
12013;DHT22;6065;48.138;16.402;2022-11-20T10:11:03;2.40;99.90
12013;DHT22;6065;48.138;16.402;2022-11-20T10:13:34;2.50;99.90
12013;DHT22;6065;48.138;16.402;2022-11-20T10:16:09;2.40;99.90
12013;DHT22;6065;48.138;16.402;2022-11-20T10:18:44;2.40;99.90
12013;DHT22;6065;48.138;16.402;2022-11-20T10:21:18;2.40;99.90
12013;DHT22;6065;48.138;16.402;2022-11-20T10:23:56;2.50;99.90
12013;DHT22;6065;48.138;16.402;2022-11-20T10:26:26;2.50;99.90
12013;DHT22;6065;48.138;16.402;2022-11-20T10:28:58;2.50;99.90
12013;DHT22;6065;48.138;16.402;2022-11-20T10:31:29;2.60;99.90
12013;DHT22;6065;48.138;16.402;2022-11-20T10:33:57;2.60;99.90
12013;DHT22;6065;48.138;16.402;2022-11-20T10:36:27;2.60;99.90
12013;DHT22;6065;48.138;16.402;2022-11-20T10:38:56;2.60;99.90
12013;DHT22;6065;48.138;16.402;2022-11-20T10:41:26;2.80;99.90
12013;DHT22;6065;48.138;16.402;2022-11-20T10:43:58;2.70;99.90
12013;DHT22;6065;48.138;16.402;2022-11-20T10:46:33;2.70;99.90
12013;DHT22;6065;48.138;16.402;2022-11-20T10:49:04;2.80;99.90
12013;DHT22;6065;48.138;16.402;2022-11-20T10:51:35;2.80;99.90
12013;DHT22;6065;48.138;16.402;2022-11-20T10:54:06;2.80;99.90
12013;DHT22;6065;48.138;16.402;2022-11-20T10:56:38;2.80;99.90
12013;DHT22;6065;48.138;16.402;2022-11-20T10:59:24;2.80;99.90
12013;DHT22;6065;48.138;16.402;2022-11-20T11:01:53;2.80;99.90
12013;DHT22;6065;48.138;16.402;2022-11-20T11:04:28;2.80;99.90
12013;DHT22;6065;48.138;16.402;2022-11-20T11:06:58;2.80;99.90
12013;DHT22;6065;48.138;16.402;2022-11-20T11:09:30;2.90;99.90
12013;DHT22;6065;48.138;16.402;2022-11-20T11:11:59;3.00;99.90
12013;DHT22;6065;48.138;16.402;2022-11-20T11:14:25;3.00;99.90
12013;DHT22;6065;48.138;16.402;2022-11-20T11:16:53;3.10;99.90
12013;DHT22;6065;48.138;16.402;2022-11-20T11:19:20;3.10;99.90
12013;DHT22;6065;48.138;16.402;2022-11-20T11:21:47;3.30;99.90
12013;DHT22;6065;48.138;16.402;2022-11-20T11:24:20;3.50;99.90
12013;DHT22;6065;48.138;16.402;2022-11-20T11:26:52;3.70;99.90
12013;DHT22;6065;48.138;16.402;2022-11-20T11:29:20;3.90;99.90
12013;DHT22;6065;48.138;16.402;2022-11-20T11:31:46;4.00;99.90
12013;DHT22;6065;48.138;16.402;2022-11-20T11:34:13;4.00;99.90
12013;DHT22;6065;48.138;16.402;2022-11-20T11:36:41;4.10;99.90
12013;DHT22;6065;48.138;16.402;2022-11-20T11:39:11;4.00;99.90
12013;DHT22;6065;48.138;16.402;2022-11-20T11:41:39;4.00;99.90
12013;DHT22;6065;48.138;16.402;2022-11-20T11:44:14;3.90;99.90
12013;DHT22;6065;48.138;16.402;2022-11-20T11:47:00;3.90;99.90
12013;DHT22;6065;48.138;16.402;2022-11-20T11:49:28;4.00;99.90
12013;DHT22;6065;48.138;16.402;2022-11-20T11:52:03;4.20;99.90
12013;DHT22;6065;48.138;16.402;2022-11-20T11:54:34;4.30;99.90
12013;DHT22;6065;48.138;16.402;2022-11-20T11:57:03;4.40;99.90
12013;DHT22;6065;48.138;16.402;2022-11-20T11:59:33;4.50;99.90
12013;DHT22;6065;48.138;16.402;2022-11-20T12:02:04;4.70;99.90
12013;DHT22;6065;48.138;16.402;2022-11-20T12:04:42;4.80;99.90
12013;DHT22;6065;48.138;16.402;2022-11-20T12:07:15;4.90;99.90
12013;DHT22;6065;48.138;16.402;2022-11-20T12:09:46;5.00;99.90
12013;DHT22;6065;48.138;16.402;2022-11-20T12:12:17;5.10;99.90
12013;DHT22;6065;48.138;16.402;2022-11-20T12:14:46;5.00;99.90
12013;DHT22;6065;48.138;16.402;2022-11-20T12:17:15;5.00;99.90
12013;DHT22;6065;48.138;16.402;2022-11-20T12:19:44;5.10;99.90
12013;DHT22;6065;48.138;16.402;2022-11-20T12:22:14;5.10;99.90
12013;DHT22;6065;48.138;16.402;2022-11-20T12:24:50;5.00;99.90
12013;DHT22;6065;48.138;16.402;2022-11-20T12:30:06;5.00;99.90
12013;DHT22;6065;48.138;16.402;2022-11-20T12:32:47;5.00;99.90
12013;DHT22;6065;48.138;16.402;2022-11-20T12:35:24;5.00;99.90
12013;DHT22;6065;48.138;16.402;2022-11-20T12:38:01;5.00;99.90
12013;DHT22;6065;48.138;16.402;2022-11-20T12:40:37;5.00;99.90
12013;DHT22;6065;48.138;16.402;2022-11-20T12:43:11;5.00;99.90
12013;DHT22;6065;48.138;16.402;2022-11-20T12:46:10;5.00;99.90
12013;DHT22;6065;48.138;16.402;2022-11-20T12:48:42;5.00;99.90
12013;DHT22;6065;48.138;16.402;2022-11-20T12:54:00;5.00;99.90
12013;DHT22;6065;48.138;16.402;2022-11-20T12:56:31;5.00;99.90
12013;DHT22;6065;48.138;16.402;2022-11-20T12:59:09;5.00;99.90
12013;DHT22;6065;48.138;16.402;2022-11-20T13:01:40;5.00;99.90
12013;DHT22;6065;48.138;16.402;2022-11-20T13:04:16;4.90;99.90
12013;DHT22;6065;48.138;16.402;2022-11-20T13:06:47;5.00;99.90
12013;DHT22;6065;48.138;16.402;2022-11-20T13:09:16;5.00;99.90
12013;DHT22;6065;48.138;16.402;2022-11-20T13:11:47;4.90;99.90
12013;DHT22;6065;48.138;16.402;2022-11-20T13:14:19;5.00;99.90
12013;DHT22;6065;48.138;16.402;2022-11-20T13:16:53;5.00;99.90
12013;DHT22;6065;48.138;16.402;2022-11-20T13:19:21;5.00;99.90
12013;DHT22;6065;48.138;16.402;2022-11-20T13:21:49;5.00;99.90
12013;DHT22;6065;48.138;16.402;2022-11-20T13:24:20;5.00;99.90
12013;DHT22;6065;48.138;16.402;2022-11-20T13:26:59;5.00;99.90
12013;DHT22;6065;48.138;16.402;2022-11-20T13:29:26;4.90;99.90
12013;DHT22;6065;48.138;16.402;2022-11-20T13:32:03;5.00;99.90
12013;DHT22;6065;48.138;16.402;2022-11-20T13:34:33;5.00;99.90
12013;DHT22;6065;48.138;16.402;2022-11-20T13:37:23;5.00;99.90
12013;DHT22;6065;48.138;16.402;2022-11-20T13:39:51;5.00;99.90
12013;DHT22;6065;48.138;16.402;2022-11-20T13:42:21;5.00;99.90
12013;DHT22;6065;48.138;16.402;2022-11-20T13:44:53;5.00;99.90
12013;DHT22;6065;48.138;16.402;2022-11-20T13:47:24;5.00;99.90
12013;DHT22;6065;48.138;16.402;2022-11-20T13:49:54;5.00;99.90
12013;DHT22;6065;48.138;16.402;2022-11-20T13:52:30;5.00;99.90
12013;DHT22;6065;48.138;16.402;2022-11-20T13:55:05;5.00;99.90
12013;DHT22;6065;48.138;16.402;2022-11-20T13:57:48;5.00;99.90
12013;DHT22;6065;48.138;16.402;2022-11-20T14:00:19;5.00;99.90
12013;DHT22;6065;48.138;16.402;2022-11-20T14:02:58;5.00;99.90
12013;DHT22;6065;48.138;16.402;2022-11-20T14:05:26;5.00;99.90
12013;DHT22;6065;48.138;16.402;2022-11-20T14:07:54;5.00;99.90
12013;DHT22;6065;48.138;16.402;2022-11-20T14:10:25;5.00;99.90
12013;DHT22;6065;48.138;16.402;2022-11-20T14:12:53;5.00;99.90
12013;DHT22;6065;48.138;16.402;2022-11-20T14:15:24;5.00;99.90
12013;DHT22;6065;48.138;16.402;2022-11-20T14:17:51;5.00;99.90
12013;DHT22;6065;48.138;16.402;2022-11-20T14:20:21;5.00;99.90
12013;DHT22;6065;48.138;16.402;2022-11-20T14:22:52;5.00;99.90
12013;DHT22;6065;48.138;16.402;2022-11-20T14:25:20;5.00;99.90
12013;DHT22;6065;48.138;16.402;2022-11-20T14:27:51;5.00;99.90
12013;DHT22;6065;48.138;16.402;2022-11-20T14:30:19;5.00;99.90
12013;DHT22;6065;48.138;16.402;2022-11-20T14:32:48;5.00;99.90
12013;DHT22;6065;48.138;16.402;2022-11-20T14:35:17;5.10;99.90
12013;DHT22;6065;48.138;16.402;2022-11-20T14:37:49;5.00;99.90
12013;DHT22;6065;48.138;16.402;2022-11-20T14:40:24;5.00;99.90
12013;DHT22;6065;48.138;16.402;2022-11-20T14:42:53;5.00;99.90
12013;DHT22;6065;48.138;16.402;2022-11-20T14:45:21;5.00;99.90
12013;DHT22;6065;48.138;16.402;2022-11-20T14:47:49;5.00;99.90
12013;DHT22;6065;48.138;16.402;2022-11-20T14:50:18;5.10;99.90
12013;DHT22;6065;48.138;16.402;2022-11-20T14:52:51;5.00;99.90
12013;DHT22;6065;48.138;16.402;2022-11-20T14:55:27;5.00;99.90
12013;DHT22;6065;48.138;16.402;2022-11-20T14:57:58;5.00;99.90
12013;DHT22;6065;48.138;16.402;2022-11-20T15:00:34;5.00;99.90
12013;DHT22;6065;48.138;16.402;2022-11-20T15:03:03;5.00;99.90
12013;DHT22;6065;48.138;16.402;2022-11-20T15:05:44;5.00;99.90
12013;DHT22;6065;48.138;16.402;2022-11-20T15:08:14;4.90;99.90
12013;DHT22;6065;48.138;16.402;2022-11-20T15:10:46;4.90;99.90
12013;DHT22;6065;48.138;16.402;2022-11-20T15:13:16;4.90;99.90
12013;DHT22;6065;48.138;16.402;2022-11-20T15:15:47;4.80;99.90
12013;DHT22;6065;48.138;16.402;2022-11-20T15:18:15;4.80;99.90
12013;DHT22;6065;48.138;16.402;2022-11-20T15:20:43;4.80;99.90
12013;DHT22;6065;48.138;16.402;2022-11-20T15:23:12;4.80;99.90
12013;DHT22;6065;48.138;16.402;2022-11-20T15:25:47;4.70;99.90
12013;DHT22;6065;48.138;16.402;2022-11-20T15:28:17;4.70;99.90
12013;DHT22;6065;48.138;16.402;2022-11-20T15:30:46;4.70;99.90
12013;DHT22;6065;48.138;16.402;2022-11-20T15:33:14;4.70;99.90
12013;DHT22;6065;48.138;16.402;2022-11-20T15:35:42;4.60;99.90
12013;DHT22;6065;48.138;16.402;2022-11-20T15:38:11;4.60;99.90
12013;DHT22;6065;48.138;16.402;2022-11-20T15:40:39;4.60;99.90
12013;DHT22;6065;48.138;16.402;2022-11-20T15:43:08;4.50;99.90
12013;DHT22;6065;48.138;16.402;2022-11-20T15:45:38;4.50;99.90
12013;DHT22;6065;48.138;16.402;2022-11-20T15:48:08;4.50;99.90
12013;DHT22;6065;48.138;16.402;2022-11-20T15:50:37;4.50;99.90
12013;DHT22;6065;48.138;16.402;2022-11-20T15:53:04;4.40;99.90
12013;DHT22;6065;48.138;16.402;2022-11-20T15:55:31;4.40;99.90
12013;DHT22;6065;48.138;16.402;2022-11-20T15:57:58;4.40;99.90
12013;DHT22;6065;48.138;16.402;2022-11-20T16:00:26;4.30;99.90
12013;DHT22;6065;48.138;16.402;2022-11-20T16:02:52;4.30;99.90
12013;DHT22;6065;48.138;16.402;2022-11-20T16:05:19;4.30;99.90
12013;DHT22;6065;48.138;16.402;2022-11-20T16:07:48;4.20;99.90